createdAt,value
2023-01-26T00:00:49.283Z,51.216049
2023-01-26T00:01:49.288Z,51.216000
2023-01-26T00:02:49.303Z,51.216190
2023-01-26T00:03:49.315Z,51.216133
2023-01-26T00:04:49.277Z,51.215954
2023-01-26T00:05:49.281Z,51.216122
2023-01-26T00:06:49.264Z,51.216297
2023-01-26T00:07:49.266Z,51.216179
2023-01-26T00:08:49.260Z,51.216095
2023-01-26T00:09:49.246Z,51.216156
2023-01-26T00:10:49.239Z,51.216106
2023-01-26T00:11:49.229Z,51.216125
2023-01-26T00:12:49.227Z,51.216045
2023-01-26T00:13:49.215Z,51.215981
2023-01-26T00:14:49.201Z,51.215927
2023-01-26T00:15:49.237Z,51.215755
2023-01-26T00:16:50.217Z,51.215839
2023-01-26T00:17:49.186Z,51.215851
2023-01-26T00:18:49.201Z,51.215919
2023-01-26T00:19:49.187Z,51.216084
2023-01-26T00:20:49.173Z,51.216129
2023-01-26T00:21:49.158Z,51.216137
2023-01-26T00:22:49.151Z,51.216072
2023-01-26T00:23:49.207Z,51.215984
2023-01-26T00:24:49.145Z,51.216034
2023-01-26T00:25:49.159Z,51.216000
2023-01-26T00:26:49.125Z,51.215897
2023-01-26T00:27:49.122Z,51.215916
2023-01-26T00:28:49.114Z,51.216053
2023-01-26T00:29:49.105Z,51.216038
2023-01-26T00:30:49.135Z,51.216003
2023-01-26T00:31:49.132Z,51.216106
2023-01-26T00:32:50.089Z,51.216034
2023-01-26T00:33:49.088Z,51.216061
2023-01-26T00:34:49.076Z,51.216068
2023-01-26T00:35:49.073Z,51.216190
2023-01-26T00:36:49.098Z,51.215977
2023-01-26T00:37:49.041Z,51.216042
2023-01-26T00:38:49.044Z,51.216026
2023-01-26T00:39:50.050Z,51.216019
2023-01-26T00:40:49.038Z,51.216103
2023-01-26T00:41:49.050Z,51.216091
2023-01-26T00:42:49.029Z,51.216061
2023-01-26T00:43:49.017Z,51.216171
2023-01-26T00:44:49.025Z,51.216034
2023-01-26T00:45:49.010Z,51.216030
2023-01-26T00:46:49.023Z,51.216122
2023-01-26T00:47:49.009Z,51.216137
2023-01-26T00:48:49.001Z,51.216125
2023-01-26T00:49:49.806Z,51.216133
2023-01-26T00:50:49.041Z,51.216084
2023-01-26T00:51:49.010Z,51.216038
2023-01-26T00:52:48.957Z,51.215984
2023-01-26T00:53:48.974Z,51.216106
2023-01-26T00:54:48.957Z,51.216133
2023-01-26T00:55:48.965Z,51.216198
2023-01-26T00:56:48.947Z,51.216187
2023-01-26T00:57:48.954Z,51.216160
2023-01-26T00:58:49.021Z,51.216076
2023-01-26T00:59:48.933Z,51.216103
2023-01-26T01:00:48.955Z,51.216103
2023-01-26T01:01:48.936Z,51.216099
2023-01-26T01:02:48.911Z,51.216076
2023-01-26T01:03:48.902Z,51.216164
2023-01-26T01:04:48.905Z,51.216179
2023-01-26T01:05:48.924Z,51.216213
2023-01-26T01:06:48.887Z,51.216106
2023-01-26T01:07:48.871Z,51.216072
2023-01-26T01:08:48.881Z,51.216125
2023-01-26T01:09:48.870Z,51.216103
2023-01-26T01:10:48.859Z,51.216118
2023-01-26T01:11:48.849Z,51.216167
2023-01-26T01:12:48.845Z,51.216061
2023-01-26T01:13:48.860Z,51.216213
2023-01-26T01:14:48.824Z,51.216320
2023-01-26T01:15:48.859Z,51.216194
2023-01-26T01:16:48.815Z,51.216034
2023-01-26T01:17:48.806Z,51.215935
2023-01-26T01:18:48.827Z,51.215984
2023-01-26T01:19:48.807Z,51.216030
2023-01-26T01:20:48.796Z,51.216053
2023-01-26T01:21:48.792Z,51.216122
2023-01-26T01:22:48.779Z,51.216190
2023-01-26T01:23:48.840Z,51.216068
2023-01-26T01:24:48.785Z,51.216091
2023-01-26T01:25:48.762Z,51.216282
2023-01-26T01:26:48.761Z,51.216145
2023-01-26T01:27:48.749Z,51.216003
2023-01-26T01:28:48.775Z,51.215897
2023-01-26T01:29:48.737Z,51.216084
2023-01-26T01:30:48.746Z,51.216236
2023-01-26T01:31:48.748Z,51.216248
2023-01-26T01:32:48.699Z,51.216011
2023-01-26T01:33:49.720Z,51.215912
2023-01-26T01:34:48.696Z,51.216152
2023-01-26T01:35:48.699Z,51.216022
2023-01-26T01:36:48.705Z,51.216080
2023-01-26T01:37:48.689Z,51.216042
2023-01-26T01:38:48.682Z,51.216286
2023-01-26T01:39:48.665Z,51.216469
2023-01-26T01:40:48.681Z,51.216232
2023-01-26T01:41:48.724Z,51.216034
2023-01-26T01:42:48.654Z,51.216122
2023-01-26T01:43:48.652Z,51.216335
2023-01-26T01:44:48.636Z,51.216309
2023-01-26T01:45:48.649Z,51.216450
2023-01-26T01:46:48.760Z,51.216156
2023-01-26T01:47:48.630Z,51.216045
2023-01-26T01:48:48.616Z,51.215687
2023-01-26T01:49:48.708Z,51.215504
2023-01-26T01:50:48.624Z,51.215996
2023-01-26T01:51:48.612Z,51.216248
2023-01-26T01:52:48.601Z,51.216457
2023-01-26T01:53:48.608Z,51.216339
2023-01-26T01:54:48.586Z,51.216206
2023-01-26T01:55:48.572Z,51.216167
2023-01-26T01:56:48.613Z,51.216152
2023-01-26T01:57:48.606Z,51.216125
2023-01-26T01:58:48.560Z,51.216156
2023-01-26T01:59:48.561Z,51.216099
2023-01-26T02:00:48.553Z,51.216064
2023-01-26T02:01:48.598Z,51.216026
2023-01-26T02:02:48.534Z,51.215973
2023-01-26T02:03:48.530Z,51.216042
2023-01-26T02:04:48.511Z,51.216045
2023-01-26T02:05:48.508Z,51.216084
2023-01-26T02:06:48.519Z,51.216114
2023-01-26T02:07:48.528Z,51.215897
2023-01-26T02:08:48.489Z,51.215630
2023-01-26T02:09:48.484Z,51.215717
2023-01-26T02:10:48.479Z,51.215878
2023-01-26T02:11:48.473Z,51.215881
2023-01-26T02:12:48.481Z,51.216091
2023-01-26T02:13:48.461Z,51.216133
2023-01-26T02:14:48.457Z,51.216148
2023-01-26T02:15:48.473Z,51.216125
2023-01-26T02:16:48.459Z,51.216228
2023-01-26T02:17:48.458Z,51.216278
2023-01-26T02:18:48.456Z,51.216221
2023-01-26T02:19:48.437Z,51.216339
2023-01-26T02:20:49.419Z,51.216282
2023-01-26T02:21:48.442Z,51.216286
2023-01-26T02:22:48.423Z,51.216427
2023-01-26T02:23:48.487Z,51.216190
2023-01-26T02:24:48.413Z,51.216232
2023-01-26T02:25:48.408Z,51.216335
2023-01-26T02:26:48.413Z,51.216328
2023-01-26T02:27:48.393Z,51.216038
2023-01-26T02:28:49.492Z,51.215900
2023-01-26T02:29:48.397Z,51.215984
2023-01-26T02:30:48.415Z,51.215977
2023-01-26T02:31:48.448Z,51.216297
2023-01-26T02:32:48.352Z,51.216370
2023-01-26T02:33:48.405Z,51.216171
2023-01-26T02:34:48.392Z,51.216164
2023-01-26T02:35:48.335Z,51.216198
2023-01-26T02:36:48.326Z,51.216202
2023-01-26T02:37:48.321Z,51.216175
2023-01-26T02:38:48.323Z,51.216187
2023-01-26T02:39:48.317Z,51.216030
2023-01-26T02:40:48.305Z,51.216145
2023-01-26T02:41:48.312Z,51.216087
2023-01-26T02:42:48.275Z,51.216145
2023-01-26T02:43:48.303Z,51.216057
2023-01-26T02:44:48.258Z,51.216053
2023-01-26T02:45:48.269Z,51.215908
2023-01-26T02:46:48.263Z,51.215950
2023-01-26T02:47:48.267Z,51.216255
2023-01-26T02:48:48.259Z,51.216251
2023-01-26T02:49:48.252Z,51.216339
2023-01-26T02:50:48.239Z,51.216225
2023-01-26T02:51:48.229Z,51.216236
2023-01-26T02:52:48.221Z,51.216324
2023-01-26T02:53:48.232Z,51.216324
2023-01-26T02:54:48.207Z,51.216442
2023-01-26T02:55:48.239Z,51.216183
2023-01-26T02:56:48.194Z,51.216263
2023-01-26T02:57:48.188Z,51.216324
2023-01-26T02:58:48.201Z,51.216236
2023-01-26T02:59:48.188Z,51.216263
2023-01-26T03:00:48.224Z,51.216297
2023-01-26T03:01:48.218Z,51.216217
2023-01-26T03:02:48.165Z,51.216175
2023-01-26T03:03:48.187Z,51.216106
2023-01-26T03:04:48.155Z,51.216129
2023-01-26T03:05:48.136Z,51.216118
2023-01-26T03:06:49.136Z,51.216248
2023-01-26T03:07:48.180Z,51.216202
2023-01-26T03:08:48.130Z,51.216141
2023-01-26T03:09:48.129Z,51.216156
2023-01-26T03:10:48.134Z,51.216118
2023-01-26T03:11:48.110Z,51.216103
2023-01-26T03:12:48.123Z,51.216156
2023-01-26T03:13:48.094Z,51.216145
2023-01-26T03:14:48.102Z,51.216137
2023-01-26T03:15:48.247Z,51.216179
2023-01-26T03:16:48.072Z,51.216114
2023-01-26T03:17:48.077Z,51.216110
2023-01-26T03:18:48.049Z,51.216095
2023-01-26T03:19:48.145Z,51.216091
2023-01-26T03:20:48.063Z,51.216145
2023-01-26T03:21:48.053Z,51.216187
2023-01-26T03:22:48.038Z,51.216183
2023-01-26T03:23:48.088Z,51.216122
2023-01-26T03:24:48.035Z,51.216148
2023-01-26T03:25:48.022Z,51.216042
2023-01-26T03:26:48.026Z,51.216099
2023-01-26T03:27:48.010Z,51.216125
2023-01-26T03:28:47.989Z,51.216053
2023-01-26T03:29:47.991Z,51.216053
2023-01-26T03:30:48.027Z,51.216091
2023-01-26T03:31:47.995Z,51.216103
2023-01-26T03:32:47.981Z,51.216026
2023-01-26T03:33:47.965Z,51.216080
2023-01-26T03:34:47.972Z,51.216118
2023-01-26T03:35:47.954Z,51.216099
2023-01-26T03:36:47.971Z,51.216091
2023-01-26T03:37:47.941Z,51.216122
2023-01-26T03:38:47.937Z,51.216152
2023-01-26T03:39:47.928Z,51.216076
2023-01-26T03:40:47.912Z,51.216072
2023-01-26T03:41:47.929Z,51.216087
2023-01-26T03:42:47.921Z,51.216099
2023-01-26T03:43:47.893Z,51.216057
2023-01-26T03:44:47.892Z,51.216064
2023-01-26T03:45:47.897Z,51.216110
2023-01-26T03:46:47.966Z,51.216125
2023-01-26T03:47:47.885Z,51.216110
2023-01-26T03:48:47.871Z,51.216236
2023-01-26T03:49:47.854Z,51.216160
2023-01-26T03:50:47.858Z,51.216084
2023-01-26T03:51:47.862Z,51.216103
2023-01-26T03:52:47.859Z,51.216084
2023-01-26T03:53:47.842Z,51.215977
2023-01-26T03:54:47.852Z,51.215958
2023-01-26T03:55:47.847Z,51.215878
2023-01-26T03:56:47.820Z,51.215698
2023-01-26T03:57:47.824Z,51.215790
2023-01-26T03:58:47.805Z,51.216000
2023-01-26T03:59:47.805Z,51.216057
2023-01-26T04:00:47.817Z,51.215855
2023-01-26T04:01:47.822Z,51.215805
2023-01-26T04:02:47.790Z,51.215950
2023-01-26T04:03:47.785Z,51.215996
2023-01-26T04:04:47.777Z,51.215862
2023-01-26T04:05:47.765Z,51.216045
2023-01-26T04:06:47.753Z,51.216053
2023-01-26T04:07:47.761Z,51.216095
2023-01-26T04:08:47.752Z,51.216103
2023-01-26T04:09:47.741Z,51.215977
2023-01-26T04:10:47.769Z,51.215790
2023-01-26T04:11:47.734Z,51.215878
2023-01-26T04:12:48.793Z,51.215893
2023-01-26T04:13:48.727Z,51.216045
2023-01-26T04:14:50.265Z,51.216000
2023-01-26T04:15:47.705Z,51.215935
2023-01-26T04:16:47.705Z,51.215862
2023-01-26T04:17:47.703Z,51.215809
2023-01-26T04:18:47.686Z,51.215927
2023-01-26T04:19:47.692Z,51.215977
2023-01-26T04:20:47.689Z,51.215908
2023-01-26T04:21:47.688Z,51.215893
2023-01-26T04:22:47.693Z,51.216019
2023-01-26T04:23:47.736Z,51.215950
2023-01-26T04:24:47.652Z,51.215900
2023-01-26T04:25:47.646Z,51.215919
2023-01-26T04:26:47.639Z,51.215992
2023-01-26T04:27:47.632Z,51.215927
2023-01-26T04:28:47.639Z,51.215954
2023-01-26T04:29:47.639Z,51.216057
2023-01-26T04:30:47.638Z,51.215965
2023-01-26T04:31:47.693Z,51.215870
2023-01-26T04:32:47.614Z,51.215900
2023-01-26T04:33:47.601Z,51.215912
2023-01-26T04:34:47.608Z,51.216022
2023-01-26T04:35:47.575Z,51.216099
2023-01-26T04:36:47.582Z,51.216007
2023-01-26T04:37:47.582Z,51.216061
2023-01-26T04:38:47.579Z,51.215958
2023-01-26T04:39:47.558Z,51.216007
2023-01-26T04:40:47.548Z,51.216053
2023-01-26T04:41:47.542Z,51.215893
2023-01-26T04:42:47.525Z,51.215916
2023-01-26T04:43:47.562Z,51.215992
2023-01-26T04:44:47.516Z,51.215969
2023-01-26T04:45:47.512Z,51.215996
2023-01-26T04:46:47.512Z,51.216057
2023-01-26T04:47:47.503Z,51.216118
2023-01-26T04:48:47.571Z,51.216064
2023-01-26T04:49:47.500Z,51.216064
2023-01-26T04:50:47.485Z,51.216045
2023-01-26T04:51:47.483Z,51.216148
2023-01-26T04:52:47.476Z,51.216114
2023-01-26T04:53:47.464Z,51.216103
2023-01-26T04:54:47.488Z,51.216110
2023-01-26T04:55:47.462Z,51.216087
2023-01-26T04:56:47.455Z,51.216099
2023-01-26T04:57:47.488Z,51.216076
2023-01-26T04:58:47.439Z,51.216156
2023-01-26T04:59:47.448Z,51.216084
2023-01-26T05:00:47.446Z,51.216110
2023-01-26T05:01:47.421Z,51.216080
2023-01-26T05:02:47.428Z,51.216034
2023-01-26T05:03:47.404Z,51.216034
2023-01-26T05:04:47.424Z,51.216026
2023-01-26T05:05:47.393Z,51.215923
2023-01-26T05:06:47.380Z,51.216019
2023-01-26T05:07:47.394Z,51.215981
2023-01-26T05:08:47.384Z,51.215965
2023-01-26T05:09:47.379Z,51.215984
2023-01-26T05:10:47.376Z,51.216022
2023-01-26T05:11:47.366Z,51.216053
2023-01-26T05:12:47.362Z,51.216045
2023-01-26T05:13:47.346Z,51.216118
2023-01-26T05:14:47.359Z,51.216034
2023-01-26T05:15:47.333Z,51.216015
2023-01-26T05:16:47.414Z,51.215954
2023-01-26T05:17:47.364Z,51.216000
2023-01-26T05:18:47.308Z,51.216019
2023-01-26T05:19:47.312Z,51.216045
2023-01-26T05:20:47.312Z,51.216015
2023-01-26T05:21:47.302Z,51.216133
2023-01-26T05:22:47.292Z,51.216045
2023-01-26T05:23:47.318Z,51.215969
2023-01-26T05:24:47.272Z,51.216057
2023-01-26T05:25:47.299Z,51.216087
2023-01-26T05:26:48.240Z,51.216057
2023-01-26T05:27:47.253Z,51.216026
2023-01-26T05:28:47.252Z,51.216061
2023-01-26T05:29:47.243Z,51.215668
2023-01-26T05:30:47.279Z,51.215752
2023-01-26T05:31:47.269Z,51.215725
2023-01-26T05:32:47.228Z,51.215904
2023-01-26T05:33:47.237Z,51.215927
2023-01-26T05:34:47.225Z,51.215885
2023-01-26T05:35:47.213Z,51.215775
2023-01-26T05:36:47.200Z,51.215874
2023-01-26T05:37:47.203Z,51.216026
2023-01-26T05:38:47.196Z,51.216167
2023-01-26T05:39:47.200Z,51.215977
2023-01-26T05:40:47.188Z,51.215992
2023-01-26T05:41:47.164Z,51.215988
2023-01-26T05:42:47.156Z,51.216103
2023-01-26T05:43:47.160Z,51.216076
2023-01-26T05:44:47.184Z,51.215900
2023-01-26T05:45:47.239Z,51.215954
2023-01-26T05:46:47.134Z,51.216007
2023-01-26T05:47:47.138Z,51.216000
2023-01-26T05:48:47.127Z,51.215931
2023-01-26T05:49:47.126Z,51.216015
2023-01-26T05:50:47.139Z,51.216152
2023-01-26T05:51:47.105Z,51.216148
2023-01-26T05:52:47.092Z,51.216057
2023-01-26T05:53:47.088Z,51.215992
2023-01-26T05:54:47.086Z,51.216007
2023-01-26T05:55:47.091Z,51.216019
2023-01-26T05:56:47.071Z,51.216080
2023-01-26T05:57:47.064Z,51.216076
2023-01-26T05:58:47.060Z,51.216122
2023-01-26T05:59:47.064Z,51.216080
2023-01-26T06:00:47.184Z,51.216061
2023-01-26T06:01:47.055Z,51.216076
2023-01-26T06:02:48.673Z,51.216099
2023-01-26T06:03:48.029Z,51.216175
2023-01-26T06:04:47.048Z,51.216114
2023-01-26T06:05:47.007Z,51.216099
2023-01-26T06:06:47.019Z,51.216156
2023-01-26T06:07:47.000Z,51.216160
2023-01-26T06:08:47.009Z,51.216133
2023-01-26T06:09:47.013Z,51.216026
2023-01-26T06:10:47.004Z,51.216045
2023-01-26T06:11:47.016Z,51.216007
2023-01-26T06:12:46.989Z,51.216007
2023-01-26T06:13:46.963Z,51.216000
2023-01-26T06:14:47.417Z,51.216141
2023-01-26T06:15:47.994Z,51.216133
2023-01-26T06:16:47.025Z,51.216167
2023-01-26T06:17:46.965Z,51.216099
2023-01-26T06:18:46.949Z,51.216106
2023-01-26T06:19:46.964Z,51.216049
2023-01-26T06:20:46.927Z,51.216068
2023-01-26T06:21:46.925Z,51.216152
2023-01-26T06:22:47.926Z,51.216045
2023-01-26T06:23:47.083Z,51.216072
2023-01-26T06:24:46.902Z,51.216110
2023-01-26T06:25:46.903Z,51.216152
2023-01-26T06:26:46.889Z,51.216137
2023-01-26T06:27:46.896Z,51.216106
2023-01-26T06:28:46.888Z,51.216103
2023-01-26T06:29:46.871Z,51.216183
2023-01-26T06:30:46.923Z,51.216141
2023-01-26T06:31:46.916Z,51.216129
2023-01-26T06:32:46.879Z,51.216122
2023-01-26T06:33:46.844Z,51.216118
2023-01-26T06:34:46.907Z,51.216118
2023-01-26T06:35:46.849Z,51.216030
2023-01-26T06:36:46.819Z,51.216129
2023-01-26T06:37:46.823Z,51.216049
2023-01-26T06:38:46.807Z,51.216106
2023-01-26T06:39:46.800Z,51.216129
2023-01-26T06:40:46.820Z,51.216156
2023-01-26T06:41:46.788Z,51.216145
2023-01-26T06:42:46.864Z,51.216072
2023-01-26T06:43:46.784Z,51.216042
2023-01-26T06:44:46.767Z,51.216095
2023-01-26T06:45:46.801Z,51.216125
2023-01-26T06:46:46.795Z,51.216133
2023-01-26T06:47:46.752Z,51.216122
2023-01-26T06:48:46.748Z,51.216110
2023-01-26T06:49:46.746Z,51.216084
2023-01-26T06:50:46.730Z,51.216095
2023-01-26T06:51:46.766Z,51.216099
2023-01-26T06:52:46.730Z,51.216019
2023-01-26T06:53:46.715Z,51.216072
2023-01-26T06:54:46.711Z,51.216091
2023-01-26T06:55:46.708Z,51.216156
2023-01-26T06:56:46.739Z,51.216133
2023-01-26T06:57:46.697Z,51.216152
2023-01-26T06:58:46.706Z,51.216225
2023-01-26T06:59:46.681Z,51.216183
2023-01-26T07:00:46.684Z,51.216171
2023-01-26T07:01:46.672Z,51.216125
2023-01-26T07:02:46.728Z,51.216084
2023-01-26T07:03:46.668Z,51.216118
2023-01-26T07:04:46.685Z,51.216137
2023-01-26T07:05:46.640Z,51.216114
2023-01-26T07:06:46.631Z,51.216087
2023-01-26T07:07:46.644Z,51.216068
2023-01-26T07:08:46.790Z,51.216122
2023-01-26T07:09:46.616Z,51.216206
2023-01-26T07:10:46.621Z,51.216267
2023-01-26T07:11:46.615Z,51.216141
2023-01-26T07:12:46.625Z,51.216164
2023-01-26T07:13:46.607Z,51.216396
2023-01-26T07:14:46.595Z,51.216331
2023-01-26T07:15:46.659Z,51.216194
2023-01-26T07:16:46.607Z,51.216110
2023-01-26T07:17:46.573Z,51.215900
2023-01-26T07:18:46.577Z,51.215881
2023-01-26T07:19:46.560Z,51.215836
2023-01-26T07:20:46.624Z,51.215885
2023-01-26T07:21:46.555Z,51.216057
2023-01-26T07:22:46.537Z,51.216049
2023-01-26T07:23:46.560Z,51.216072
2023-01-26T07:24:46.531Z,51.215973
2023-01-26T07:25:46.751Z,51.216045
2023-01-26T07:26:46.535Z,51.216091
2023-01-26T07:27:46.561Z,51.216290
2023-01-26T07:28:46.519Z,51.216259
2023-01-26T07:29:46.493Z,51.216286
2023-01-26T07:30:46.557Z,51.216282
2023-01-26T07:31:46.575Z,51.216316
2023-01-26T07:32:46.480Z,51.216202
2023-01-26T07:33:46.468Z,51.216244
2023-01-26T07:34:46.467Z,51.216225
2023-01-26T07:35:46.472Z,51.216225
2023-01-26T07:36:46.456Z,51.216240
2023-01-26T07:37:46.464Z,51.216175
2023-01-26T07:38:46.463Z,51.216129
2023-01-26T07:39:46.435Z,51.216137
2023-01-26T07:40:46.425Z,51.216114
2023-01-26T07:41:46.432Z,51.216297
2023-01-26T07:42:46.435Z,51.216236
2023-01-26T07:43:46.502Z,51.216179
2023-01-26T07:44:46.414Z,51.216076
2023-01-26T07:45:46.400Z,51.216045
2023-01-26T07:46:46.515Z,51.215847
2023-01-26T07:47:46.418Z,51.215958
2023-01-26T07:48:46.383Z,51.216015
2023-01-26T07:49:46.401Z,51.215973
2023-01-26T07:50:46.379Z,51.215923
2023-01-26T07:51:46.392Z,51.215919
2023-01-26T07:52:46.363Z,51.215912
2023-01-26T07:53:46.371Z,51.216057
2023-01-26T07:54:46.388Z,51.216202
2023-01-26T07:55:46.350Z,51.216213
2023-01-26T07:56:46.337Z,51.216118
2023-01-26T07:57:46.600Z,51.216255
2023-01-26T07:58:46.330Z,51.216228
2023-01-26T07:59:46.320Z,51.216209
2023-01-26T08:00:46.306Z,51.216244
2023-01-26T08:01:46.347Z,51.216194
2023-01-26T08:02:46.307Z,51.216095
2023-01-26T08:03:46.300Z,51.216213
2023-01-26T08:04:46.283Z,51.216301
2023-01-26T08:05:46.319Z,51.215996
2023-01-26T08:06:46.264Z,51.216007
2023-01-26T08:07:46.268Z,51.215973
2023-01-26T08:08:46.268Z,51.216091
2023-01-26T08:09:46.260Z,51.216049
2023-01-26T08:10:46.246Z,51.215965
2023-01-26T08:11:46.255Z,51.216095
2023-01-26T08:12:46.242Z,51.216297
2023-01-26T08:13:46.232Z,51.216171
2023-01-26T08:14:47.340Z,51.216011
2023-01-26T08:15:47.222Z,51.216007
2023-01-26T08:16:46.301Z,51.215958
2023-01-26T08:17:46.215Z,51.215912
2023-01-26T08:18:46.205Z,51.215878
2023-01-26T08:19:46.202Z,51.215736
2023-01-26T08:20:46.195Z,51.215549
2023-01-26T08:21:46.184Z,51.215485
2023-01-26T08:22:46.168Z,51.215553
2023-01-26T08:23:46.170Z,51.215343
2023-01-26T08:24:46.185Z,51.215443
2023-01-26T08:25:46.228Z,51.215679
2023-01-26T08:26:46.167Z,51.216034
2023-01-26T08:27:46.151Z,51.216068
2023-01-26T08:28:46.137Z,51.216187
2023-01-26T08:29:46.222Z,51.216156
2023-01-26T08:30:46.184Z,51.216248
2023-01-26T08:31:46.163Z,51.216190
2023-01-26T08:32:46.116Z,51.216045
2023-01-26T08:33:46.119Z,51.215820
2023-01-26T08:34:46.127Z,51.215843
2023-01-26T08:35:46.104Z,51.216106
2023-01-26T08:36:46.095Z,51.216190
2023-01-26T08:37:46.084Z,51.216335
2023-01-26T08:38:46.105Z,51.216038
2023-01-26T08:39:46.071Z,51.216148
2023-01-26T08:40:46.080Z,51.216145
2023-01-26T08:41:46.067Z,51.216114
2023-01-26T08:42:46.055Z,51.216137
2023-01-26T08:43:46.051Z,51.216106
2023-01-26T08:44:46.045Z,51.215954
2023-01-26T08:45:46.074Z,51.216053
2023-01-26T08:46:46.023Z,51.216263
2023-01-26T08:47:46.023Z,51.216248
2023-01-26T08:48:46.017Z,51.216114
2023-01-26T08:49:46.003Z,51.216129
2023-01-26T08:50:46.023Z,51.216194
2023-01-26T08:51:46.014Z,51.216137
2023-01-26T08:52:45.984Z,51.216286
2023-01-26T08:53:46.013Z,51.216270
2023-01-26T08:54:45.970Z,51.216278
2023-01-26T08:55:45.988Z,51.216106
2023-01-26T08:56:45.980Z,51.216080
2023-01-26T08:57:45.980Z,51.216129
2023-01-26T08:58:45.947Z,51.216011
2023-01-26T08:59:45.941Z,51.215981
2023-01-26T09:00:46.015Z,51.216122
2023-01-26T09:01:45.946Z,51.216202
2023-01-26T09:02:46.076Z,51.216206
2023-01-26T09:03:45.927Z,51.216396
2023-01-26T09:04:45.907Z,51.216274
2023-01-26T09:05:45.905Z,51.216167
2023-01-26T09:06:45.924Z,51.216290
2023-01-26T09:07:45.897Z,51.216194
2023-01-26T09:08:45.882Z,51.216179
2023-01-26T09:09:45.882Z,51.216335
2023-01-26T09:10:45.870Z,51.216206
2023-01-26T09:11:45.867Z,51.216057
2023-01-26T09:12:46.908Z,51.216148
2023-01-26T09:13:45.879Z,51.216076
2023-01-26T09:14:45.856Z,51.216045
2023-01-26T09:15:45.851Z,51.216019
2023-01-26T09:16:45.927Z,51.216221
2023-01-26T09:17:45.843Z,51.216087
2023-01-26T09:18:45.831Z,51.216103
2023-01-26T09:19:45.846Z,51.216034
2023-01-26T09:20:45.816Z,51.216072
2023-01-26T09:21:45.803Z,51.216206
2023-01-26T09:22:45.804Z,51.216164
2023-01-26T09:23:45.808Z,51.216198
2023-01-26T09:24:45.786Z,51.216293
2023-01-26T09:25:45.784Z,51.216171
2023-01-26T09:26:45.770Z,51.215958
2023-01-26T09:27:45.770Z,51.215916
2023-01-26T09:28:45.780Z,51.216091
2023-01-26T09:29:45.764Z,51.216053
2023-01-26T09:30:45.843Z,51.216103
2023-01-26T09:31:45.809Z,51.216084
2023-01-26T09:32:45.728Z,51.215923
2023-01-26T09:33:45.721Z,51.216095
2023-01-26T09:34:46.728Z,51.216209
2023-01-26T09:35:45.707Z,51.216194
2023-01-26T09:36:45.716Z,51.216309
2023-01-26T09:37:45.718Z,51.216206
2023-01-26T09:38:45.734Z,51.216129
2023-01-26T09:39:45.694Z,51.216141
2023-01-26T09:40:45.691Z,51.216076
2023-01-26T09:41:45.678Z,51.216076
2023-01-26T09:42:45.667Z,51.216045
2023-01-26T09:43:45.670Z,51.216080
2023-01-26T09:44:45.635Z,51.216114
2023-01-26T09:45:45.651Z,51.216080
2023-01-26T09:46:45.649Z,51.216034
2023-01-26T09:47:45.636Z,51.216133
2023-01-26T09:48:45.632Z,51.216099
2023-01-26T09:49:45.646Z,51.216080
2023-01-26T09:50:45.619Z,51.215881
2023-01-26T09:51:45.618Z,51.215862
2023-01-26T09:52:45.603Z,51.216137
2023-01-26T09:53:45.587Z,51.216087
2023-01-26T09:54:45.595Z,51.216080
2023-01-26T09:55:45.574Z,51.215984
2023-01-26T09:56:45.577Z,51.216049
2023-01-26T09:57:45.579Z,51.216072
2023-01-26T09:58:45.571Z,51.216007
2023-01-26T09:59:45.575Z,51.216030
2023-01-26T10:00:45.553Z,51.215881
2023-01-26T10:01:45.587Z,51.215824
2023-01-26T10:02:45.590Z,51.216110
2023-01-26T10:03:45.535Z,51.216255
2023-01-26T10:04:45.534Z,51.216213
2023-01-26T10:05:45.514Z,51.216152
2023-01-26T10:06:45.512Z,51.216152
2023-01-26T10:07:45.507Z,51.216152
2023-01-26T10:08:45.498Z,51.216091
2023-01-26T10:09:46.163Z,51.216125
2023-01-26T10:10:46.488Z,51.216187
2023-01-26T10:11:45.499Z,51.216209
2023-01-26T10:12:45.477Z,51.216270
2023-01-26T10:13:45.476Z,51.216320
2023-01-26T10:14:45.496Z,51.216125
2023-01-26T10:15:45.512Z,51.216190
2023-01-26T10:16:45.451Z,51.216084
2023-01-26T10:17:45.451Z,51.216118
2023-01-26T10:18:45.444Z,51.215946
2023-01-26T10:19:45.437Z,51.216064
2023-01-26T10:20:45.439Z,51.216175
2023-01-26T10:21:45.427Z,51.216057
2023-01-26T10:22:45.438Z,51.216099
2023-01-26T10:23:45.403Z,51.216145
2023-01-26T10:24:45.399Z,51.216045
2023-01-26T10:25:45.404Z,51.216160
2023-01-26T10:26:45.393Z,51.216347
2023-01-26T10:27:45.404Z,51.216080
2023-01-26T10:28:45.390Z,51.216122
2023-01-26T10:29:45.372Z,51.216133
2023-01-26T10:30:45.436Z,51.216198
2023-01-26T10:31:45.474Z,51.216167
2023-01-26T10:32:45.369Z,51.216076
2023-01-26T10:33:45.359Z,51.216133
2023-01-26T10:34:45.349Z,51.216068
2023-01-26T10:35:45.335Z,51.216114
2023-01-26T10:36:45.332Z,51.216072
2023-01-26T10:37:45.315Z,51.216095
2023-01-26T10:38:45.350Z,51.216064
2023-01-26T10:39:45.294Z,51.216049
2023-01-26T10:40:45.300Z,51.216053
2023-01-26T10:41:45.290Z,51.216068
2023-01-26T10:42:45.294Z,51.216114
2023-01-26T10:43:45.287Z,51.216171
2023-01-26T10:44:45.275Z,51.216129
2023-01-26T10:45:45.267Z,51.216133
2023-01-26T10:46:45.314Z,51.216125
2023-01-26T10:47:45.251Z,51.216228
2023-01-26T10:48:45.243Z,51.216145
2023-01-26T10:49:45.291Z,51.216087
2023-01-26T10:50:45.232Z,51.215981
2023-01-26T10:51:45.233Z,51.215927
2023-01-26T10:52:45.217Z,51.216019
2023-01-26T10:53:45.214Z,51.216011
2023-01-26T10:54:45.217Z,51.216179
2023-01-26T10:55:45.206Z,51.216160
2023-01-26T10:56:45.195Z,51.216103
2023-01-26T10:57:45.199Z,51.216228
2023-01-26T10:58:45.189Z,51.216190
2023-01-26T10:59:45.175Z,51.216209
2023-01-26T11:00:45.182Z,51.216274
2023-01-26T11:01:45.222Z,51.216274
2023-01-26T11:02:45.182Z,51.216270
2023-01-26T11:03:45.142Z,51.216164
2023-01-26T11:04:45.154Z,51.216179
2023-01-26T11:05:45.151Z,51.216190
2023-01-26T11:06:45.129Z,51.216183
2023-01-26T11:07:45.141Z,51.216202
2023-01-26T11:08:45.114Z,51.216152
2023-01-26T11:09:45.130Z,51.216137
2023-01-26T11:10:45.116Z,51.216194
2023-01-26T11:11:45.107Z,51.216175
2023-01-26T11:12:45.098Z,51.216248
2023-01-26T11:13:45.090Z,51.216228
2023-01-26T11:14:45.112Z,51.216217
2023-01-26T11:15:45.063Z,51.216175
2023-01-26T11:16:45.103Z,51.216103
2023-01-26T11:17:45.056Z,51.216125
2023-01-26T11:18:45.043Z,51.216099
2023-01-26T11:19:45.056Z,51.216171
2023-01-26T11:20:45.050Z,51.216160
2023-01-26T11:21:45.031Z,51.216175
2023-01-26T11:22:45.018Z,51.216103
2023-01-26T11:23:45.046Z,51.216148
2023-01-26T11:24:45.006Z,51.216171